<?xml version="1.0" encoding="UTF-8"?>
<gpx  version="1.1"  creator="Verlag Esterbauer" xmlns:xsi="http://www.w3.org/2001/XMLSchema-instance" xmlns="http://www.topografix.com/GPX/1/1"  xsi:schemaLocation="http://www.topografix.com/GPX/1/1 http://www.topografix.com/GPX/1/1/gpx.xsd">
<trk>
  <name>wf-gran_T21</name>
  <trkseg>
    <trkpt lat="28.100081" lon="-15.70091">
    <time>1971-01-13T12:01:19Z</time>
    </trkpt>
    <trkpt lat="28.099851" lon="-15.701068">
    <time>1971-01-13T12:01:46Z</time>
  <cmt>extensions = 1.09</cmt>
    </trkpt>
    <trkpt lat="28.099625" lon="-15.701318">
    <time>1971-01-13T12:02:17Z</time>
  <cmt>extensions = 1.95</cmt>
    </trkpt>
    <trkpt lat="28.099563" lon="-15.701305">
    <time>1971-01-13T12:02:24Z</time>
  <cmt>extensions = 0.14</cmt>
    </trkpt>
    <trkpt lat="28.099482" lon="-15.701223">
    <time>1971-01-13T12:02:35Z</time>
  <cmt>extensions = 0.83</cmt>
    </trkpt>
    <trkpt lat="28.09941" lon="-15.701317">
    <time>1971-01-13T12:02:46Z</time>
  <cmt>extensions = 1.07</cmt>
    </trkpt>
    <trkpt lat="28.099522" lon="-15.701576">
    <time>1971-01-13T12:03:11Z</time>
  <cmt>extensions = 1.90</cmt>
    </trkpt>
    <trkpt lat="28.09954" lon="-15.70167">
    <time>1971-01-13T12:03:19Z</time>
  <cmt>extensions = 1.57</cmt>
    </trkpt>
    <trkpt lat="28.099495" lon="-15.701803">
    <time>1971-01-13T12:03:32Z</time>
  <cmt>extensions = 2.24</cmt>
    </trkpt>
    <trkpt lat="28.099498" lon="-15.701944">
    <time>1971-01-13T12:03:44Z</time>
  <cmt>extensions = 1.73</cmt>
    </trkpt>
    <trkpt lat="28.099459" lon="-15.702037">
    <time>1971-01-13T12:03:54Z</time>
  <cmt>extensions = 3.37</cmt>
    </trkpt>
    <trkpt lat="28.09955" lon="-15.702153">
    <time>1971-01-13T12:04:07Z</time>
  <cmt>extensions = 1.96</cmt>
    </trkpt>
    <trkpt lat="28.099553" lon="-15.702238">
    <time>1971-01-13T12:04:15Z</time>
  <cmt>extensions = 1.04</cmt>
    </trkpt>
    <trkpt lat="28.09962" lon="-15.702418">
    <time>1971-01-13T12:04:32Z</time>
  <cmt>extensions = 1.57</cmt>
    </trkpt>
    <trkpt lat="28.099679" lon="-15.702638">
    <time>1971-01-13T12:04:52Z</time>
  <cmt>extensions = 1.74</cmt>
    </trkpt>
    <trkpt lat="28.099733" lon="-15.703013">
    <time>1971-01-13T12:05:26Z</time>
  <cmt>extensions = 1.15</cmt>
    </trkpt>
    <trkpt lat="28.099463" lon="-15.703413">
    <time>1971-01-13T12:06:10Z</time>
  <cmt>extensions = 1.71</cmt>
    </trkpt>
    <trkpt lat="28.099429" lon="-15.703538">
    <time>1971-01-13T12:06:22Z</time>
  <cmt>extensions = 1.43</cmt>
    </trkpt>
    <trkpt lat="28.099411" lon="-15.703646">
    <time>1971-01-13T12:06:32Z</time>
  <cmt>extensions = 1.93</cmt>
    </trkpt>
    <trkpt lat="28.099351" lon="-15.703776">
    <time>1971-01-13T12:06:45Z</time>
  <cmt>extensions = 1.80</cmt>
    </trkpt>
    <trkpt lat="28.09931" lon="-15.703831">
    <time>1971-01-13T12:06:51Z</time>
  <cmt>extensions = 1.41</cmt>
    </trkpt>
    <trkpt lat="28.099281" lon="-15.703896">
    <time>1971-01-13T12:06:57Z</time>
  <cmt>extensions = 1.79</cmt>
    </trkpt>
    <trkpt lat="28.09924" lon="-15.704065">
    <time>1971-01-13T12:07:13Z</time>
  <cmt>extensions = 1.69</cmt>
    </trkpt>
    <trkpt lat="28.099119" lon="-15.704295">
    <time>1971-01-13T12:07:36Z</time>
  <cmt>extensions = 1.53</cmt>
    </trkpt>
    <trkpt lat="28.099103" lon="-15.704395">
    <time>1971-01-13T12:07:45Z</time>
  <cmt>extensions = 2.00</cmt>
    </trkpt>
    <trkpt lat="28.099062" lon="-15.704523">
    <time>1971-01-13T12:07:57Z</time>
  <cmt>extensions = 1.03</cmt>
    </trkpt>
    <trkpt lat="28.099081" lon="-15.704595">
    <time>1971-01-13T12:08:04Z</time>
  <cmt>extensions = 0.62</cmt>
    </trkpt>
    <trkpt lat="28.099064" lon="-15.704673">
    <time>1971-01-13T12:08:11Z</time>
  <cmt>extensions = 0.66</cmt>
    </trkpt>
    <trkpt lat="28.099148" lon="-15.70507">
    <time>1971-01-13T12:08:47Z</time>
  <cmt>extensions = 0.95</cmt>
    </trkpt>
    <trkpt lat="28.099152" lon="-15.705172">
    <time>1971-01-13T12:08:56Z</time>
  <cmt>extensions = 0.59</cmt>
    </trkpt>
    <trkpt lat="28.099105" lon="-15.705114">
    <time>1971-01-13T12:09:03Z</time>
  <cmt>extensions = 0.92</cmt>
    </trkpt>
    <trkpt lat="28.098982" lon="-15.704897">
    <time>1971-01-13T12:09:26Z</time>
  <cmt>extensions = 1.17</cmt>
    </trkpt>
    <trkpt lat="28.098886" lon="-15.704788">
    <time>1971-01-13T12:09:39Z</time>
  <cmt>extensions = 0.91</cmt>
    </trkpt>
    <trkpt lat="28.098732" lon="-15.704746">
    <time>1971-01-13T12:09:55Z</time>
  <cmt>extensions = 0.74</cmt>
    </trkpt>
    <trkpt lat="28.098686" lon="-15.704711">
    <time>1971-01-13T12:10:01Z</time>
  <cmt>extensions = 0.88</cmt>
    </trkpt>
    <trkpt lat="28.098607" lon="-15.704718">
    <time>1971-01-13T12:10:09Z</time>
  <cmt>extensions = 0.88</cmt>
    </trkpt>
    <trkpt lat="28.098485" lon="-15.704745">
    <time>1971-01-13T12:10:21Z</time>
  <cmt>extensions = 0.78</cmt>
    </trkpt>
    <trkpt lat="28.098391" lon="-15.704752">
    <time>1971-01-13T12:10:30Z</time>
  <cmt>extensions = 1.05</cmt>
    </trkpt>
    <trkpt lat="28.098291" lon="-15.704788">
    <time>1971-01-13T12:10:41Z</time>
  <cmt>extensions = 1.11</cmt>
    </trkpt>
    <trkpt lat="28.098184" lon="-15.704796">
    <time>1971-01-13T12:10:52Z</time>
  <cmt>extensions = 1.43</cmt>
    </trkpt>
    <trkpt lat="28.098027" lon="-15.704792">
    <time>1971-01-13T12:11:07Z</time>
  <cmt>extensions = 1.16</cmt>
    </trkpt>
    <trkpt lat="28.097957" lon="-15.704803">
    <time>1971-01-13T12:11:14Z</time>
  <cmt>extensions = 0.98</cmt>
    </trkpt>
    <trkpt lat="28.097661" lon="-15.704999">
    <time>1971-01-13T12:11:49Z</time>
  <cmt>extensions = 1.04</cmt>
    </trkpt>
    <trkpt lat="28.097542" lon="-15.705078">
    <time>1971-01-13T12:12:02Z</time>
  <cmt>extensions = 0.97</cmt>
    </trkpt>
    <trkpt lat="28.097441" lon="-15.705059">
    <time>1971-01-13T12:12:13Z</time>
  <cmt>extensions = 1.14</cmt>
    </trkpt>
    <trkpt lat="28.097271" lon="-15.705107">
    <time>1971-01-13T12:12:30Z</time>
  <cmt>extensions = 1.03</cmt>
    </trkpt>
    <trkpt lat="28.097174" lon="-15.705162">
    <time>1971-01-13T12:12:41Z</time>
  <cmt>extensions = 0.93</cmt>
    </trkpt>
    <trkpt lat="28.097175" lon="-15.7053">
    <time>1971-01-13T12:12:53Z</time>
  <cmt>extensions = 1.36</cmt>
    </trkpt>
    <trkpt lat="28.097128" lon="-15.705393">
    <time>1971-01-13T12:13:02Z</time>
  <cmt>extensions = 1.02</cmt>
    </trkpt>
    <trkpt lat="28.097063" lon="-15.705514">
    <time>1971-01-13T12:13:15Z</time>
  <cmt>extensions = 1.12</cmt>
    </trkpt>
    <trkpt lat="28.097003" lon="-15.705556">
    <time>1971-01-13T12:13:22Z</time>
  <cmt>extensions = 0.85</cmt>
    </trkpt>
    <trkpt lat="28.096915" lon="-15.705552">
    <time>1971-01-13T12:13:31Z</time>
  <cmt>extensions = 0.28</cmt>
    </trkpt>
    <trkpt lat="28.096866" lon="-15.705649">
    <time>1971-01-13T12:13:41Z</time>
  <cmt>extensions = 1.18</cmt>
    </trkpt>
    <trkpt lat="28.096603" lon="-15.705688">
    <time>1971-01-13T12:14:07Z</time>
  <cmt>extensions = 1.12</cmt>
    </trkpt>
    <trkpt lat="28.096424" lon="-15.705742">
    <time>1971-01-13T12:14:26Z</time>
  <cmt>extensions = 1.33</cmt>
    </trkpt>
    <trkpt lat="28.09633" lon="-15.705814">
    <time>1971-01-13T12:14:37Z</time>
  <cmt>extensions = 0.97</cmt>
    </trkpt>
    <trkpt lat="28.096226" lon="-15.705866">
    <time>1971-01-13T12:14:48Z</time>
  <cmt>extensions = 0.90</cmt>
    </trkpt>
    <trkpt lat="28.096153" lon="-15.705813">
    <time>1971-01-13T12:14:57Z</time>
  <cmt>extensions = 1.21</cmt>
    </trkpt>
    <trkpt lat="28.096097" lon="-15.705805">
    <time>1971-01-13T12:15:03Z</time>
  <cmt>extensions = 1.26</cmt>
    </trkpt>
    <trkpt lat="28.095983" lon="-15.705871">
    <time>1971-01-13T12:15:15Z</time>
  <cmt>extensions = 1.10</cmt>
    </trkpt>
    <trkpt lat="28.095894" lon="-15.705883">
    <time>1971-01-13T12:15:24Z</time>
  <cmt>extensions = 1.00</cmt>
    </trkpt>
    <trkpt lat="28.095841" lon="-15.705934">
    <time>1971-01-13T12:15:31Z</time>
  <cmt>extensions = 1.29</cmt>
    </trkpt>
    <trkpt lat="28.095771" lon="-15.706055">
    <time>1971-01-13T12:15:44Z</time>
  <cmt>extensions = 1.01</cmt>
    </trkpt>
    <trkpt lat="28.0956" lon="-15.706173">
    <time>1971-01-13T12:16:04Z</time>
  <cmt>extensions = 1.18</cmt>
    </trkpt>
    <trkpt lat="28.095506" lon="-15.706211">
    <time>1971-01-13T12:16:14Z</time>
  <cmt>extensions = 0.39</cmt>
    </trkpt>
    <trkpt lat="28.095441" lon="-15.706209">
    <time>1971-01-13T12:16:20Z</time>
  <cmt>extensions = 0.82</cmt>
    </trkpt>
    <trkpt lat="28.095329" lon="-15.706241">
    <time>1971-01-13T12:16:32Z</time>
  <cmt>extensions = 1.02</cmt>
    </trkpt>
    <trkpt lat="28.095314" lon="-15.706178">
    <time>1971-01-13T12:16:38Z</time>
  <cmt>extensions = 1.07</cmt>
    </trkpt>
    <trkpt lat="28.095316" lon="-15.706066">
    <time>1971-01-13T12:16:48Z</time>
  <cmt>extensions = 0.89</cmt>
    </trkpt>
    <trkpt lat="28.095242" lon="-15.706067">
    <time>1971-01-13T12:16:55Z</time>
  <cmt>extensions = 0.76</cmt>
    </trkpt>
    <trkpt lat="28.095157" lon="-15.706178">
    <time>1971-01-13T12:17:08Z</time>
  <cmt>extensions = 1.31</cmt>
    </trkpt>
    <trkpt lat="28.09508" lon="-15.706213">
    <time>1971-01-13T12:17:16Z</time>
  <cmt>extensions = 0.30</cmt>
    </trkpt>
    <trkpt lat="28.095018" lon="-15.706187">
    <time>1971-01-13T12:17:23Z</time>
  <cmt>extensions = 0.57</cmt>
    </trkpt>
    <trkpt lat="28.094926" lon="-15.706214">
    <time>1971-01-13T12:17:32Z</time>
  <cmt>extensions = 0.47</cmt>
    </trkpt>
    <trkpt lat="28.094803" lon="-15.706254">
    <time>1971-01-13T12:17:45Z</time>
  <cmt>extensions = 0.50</cmt>
    </trkpt>
    <trkpt lat="28.094723" lon="-15.7062">
    <time>1971-01-13T12:17:54Z</time>
  <cmt>extensions = 0.80</cmt>
    </trkpt>
    <trkpt lat="28.0946" lon="-15.706164">
    <time>1971-01-13T12:18:07Z</time>
  <cmt>extensions = 0.88</cmt>
    </trkpt>
    <trkpt lat="28.094506" lon="-15.706135">
    <time>1971-01-13T12:18:17Z</time>
  <cmt>extensions = 0.17</cmt>
    </trkpt>
    <trkpt lat="28.094438" lon="-15.706165">
    <time>1971-01-13T12:18:24Z</time>
  <cmt>extensions = 1.05</cmt>
    </trkpt>
    <trkpt lat="28.094309" lon="-15.706103">
    <time>1971-01-13T12:18:38Z</time>
  <cmt>extensions = 0.97</cmt>
    </trkpt>
    <trkpt lat="28.094231" lon="-15.706119">
    <time>1971-01-13T12:18:46Z</time>
  <cmt>extensions = 1.10</cmt>
    </trkpt>
    <trkpt lat="28.094176" lon="-15.70609">
    <time>1971-01-13T12:18:52Z</time>
  <cmt>extensions = 0.96</cmt>
    </trkpt>
    <trkpt lat="28.094047" lon="-15.706069">
    <time>1971-01-13T12:19:05Z</time>
  <cmt>extensions = 1.27</cmt>
    </trkpt>
    <trkpt lat="28.093539" lon="-15.706089">
    <time>1971-01-13T12:19:56Z</time>
  <cmt>extensions = 1.05</cmt>
    </trkpt>
    <trkpt lat="28.093428" lon="-15.706139">
    <time>1971-01-13T12:20:07Z</time>
  <cmt>extensions = 1.11</cmt>
    </trkpt>
    <trkpt lat="28.093231" lon="-15.70619">
    <time>1971-01-13T12:20:28Z</time>
  <cmt>extensions = 0.71</cmt>
    </trkpt>
    <trkpt lat="28.092633" lon="-15.706179">
    <time>1971-01-13T12:21:27Z</time>
  <cmt>extensions = 1.29</cmt>
    </trkpt>
    <trkpt lat="28.092474" lon="-15.706127">
    <time>1971-01-13T12:21:44Z</time>
  <cmt>extensions = 1.67</cmt>
    </trkpt>
    <trkpt lat="28.092422" lon="-15.706082">
    <time>1971-01-13T12:21:50Z</time>
  <cmt>extensions = 1.55</cmt>
    </trkpt>
    <trkpt lat="28.092329" lon="-15.706016">
    <time>1971-01-13T12:22:01Z</time>
  <cmt>extensions = 1.74</cmt>
    </trkpt>
    <trkpt lat="28.092262" lon="-15.705956">
    <time>1971-01-13T12:22:10Z</time>
  <cmt>extensions = 1.36</cmt>
    </trkpt>
    <trkpt lat="28.092185" lon="-15.705953">
    <time>1971-01-13T12:22:17Z</time>
  <cmt>extensions = 1.23</cmt>
    </trkpt>
    <trkpt lat="28.092129" lon="-15.705928">
    <time>1971-01-13T12:22:23Z</time>
  <cmt>extensions = 1.12</cmt>
    </trkpt>
    <trkpt lat="28.092007" lon="-15.70608">
    <time>1971-01-13T12:22:42Z</time>
  <cmt>extensions = 1.68</cmt>
    </trkpt>
    <trkpt lat="28.092032" lon="-15.706267">
    <time>1971-01-13T12:22:58Z</time>
  <cmt>extensions = 1.69</cmt>
    </trkpt>
    <trkpt lat="28.092011" lon="-15.706339">
    <time>1971-01-13T12:23:05Z</time>
  <cmt>extensions = 1.86</cmt>
    </trkpt>
    <trkpt lat="28.092016" lon="-15.706419">
    <time>1971-01-13T12:23:12Z</time>
  <cmt>extensions = 0.17</cmt>
    </trkpt>
    <trkpt lat="28.091855" lon="-15.70649">
    <time>1971-01-13T12:23:29Z</time>
  <cmt>extensions = 1.37</cmt>
    </trkpt>
    <trkpt lat="28.091366" lon="-15.706513">
    <time>1971-01-13T12:24:18Z</time>
  <cmt>extensions = 1.52</cmt>
    </trkpt>
    <trkpt lat="28.091224" lon="-15.706523">
    <time>1971-01-13T12:24:32Z</time>
  <cmt>extensions = 1.41</cmt>
    </trkpt>
    <trkpt lat="28.091172" lon="-15.706488">
    <time>1971-01-13T12:24:38Z</time>
  <cmt>extensions = 1.68</cmt>
    </trkpt>
    <trkpt lat="28.091126" lon="-15.706424">
    <time>1971-01-13T12:24:46Z</time>
  <cmt>extensions = 1.44</cmt>
    </trkpt>
    <trkpt lat="28.091065" lon="-15.706349">
    <time>1971-01-13T12:24:55Z</time>
  <cmt>extensions = 1.28</cmt>
    </trkpt>
    <trkpt lat="28.090994" lon="-15.706253">
    <time>1971-01-13T12:25:06Z</time>
  <cmt>extensions = 0.43</cmt>
    </trkpt>
    <trkpt lat="28.09095" lon="-15.706208">
    <time>1971-01-13T12:25:12Z</time>
  <cmt>extensions = 0.17</cmt>
    </trkpt>
    <trkpt lat="28.090879" lon="-15.706095">
    <time>1971-01-13T12:25:24Z</time>
  <cmt>extensions = 1.53</cmt>
    </trkpt>
    <trkpt lat="28.090856" lon="-15.706006">
    <time>1971-01-13T12:25:32Z</time>
  <cmt>extensions = 1.52</cmt>
    </trkpt>
    <trkpt lat="28.090799" lon="-15.705904">
    <time>1971-01-13T12:25:43Z</time>
  <cmt>extensions = 1.19</cmt>
    </trkpt>
    <trkpt lat="28.090755" lon="-15.705743">
    <time>1971-01-13T12:25:57Z</time>
  <cmt>extensions = 1.56</cmt>
    </trkpt>
    <trkpt lat="28.090695" lon="-15.705579">
    <time>1971-01-13T12:26:13Z</time>
  <cmt>extensions = 1.25</cmt>
    </trkpt>
    <trkpt lat="28.090668" lon="-15.70548">
    <time>1971-01-13T12:26:22Z</time>
  <cmt>extensions = 1.70</cmt>
    </trkpt>
    <trkpt lat="28.090597" lon="-15.705372">
    <time>1971-01-13T12:26:34Z</time>
  <cmt>extensions = 1.81</cmt>
    </trkpt>
    <trkpt lat="28.090537" lon="-15.705303">
    <time>1971-01-13T12:26:43Z</time>
  <cmt>extensions = 1.36</cmt>
    </trkpt>
    <trkpt lat="28.090387" lon="-15.705163">
    <time>1971-01-13T12:27:02Z</time>
  <cmt>extensions = 1.38</cmt>
    </trkpt>
    <trkpt lat="28.090338" lon="-15.705299">
    <time>1971-01-13T12:27:15Z</time>
  <cmt>extensions = 1.23</cmt>
    </trkpt>
    <trkpt lat="28.090234" lon="-15.705264">
    <time>1971-01-13T12:27:26Z</time>
  <cmt>extensions = 0.81</cmt>
    </trkpt>
    <trkpt lat="28.090181" lon="-15.705107">
    <time>1971-01-13T12:27:41Z</time>
  <cmt>extensions = 1.41</cmt>
    </trkpt>
    <trkpt lat="28.090218" lon="-15.704927">
    <time>1971-01-13T12:27:57Z</time>
  <cmt>extensions = 1.55</cmt>
    </trkpt>
    <trkpt lat="28.090146" lon="-15.704861">
    <time>1971-01-13T12:28:06Z</time>
  <cmt>extensions = 2.06</cmt>
    </trkpt>
    <trkpt lat="28.090017" lon="-15.704831">
    <time>1971-01-13T12:28:19Z</time>
  <cmt>extensions = 0.91</cmt>
    </trkpt>
    <trkpt lat="28.089925" lon="-15.704809">
    <time>1971-01-13T12:28:29Z</time>
  <cmt>extensions = 1.76</cmt>
    </trkpt>
    <trkpt lat="28.089844" lon="-15.704747">
    <time>1971-01-13T12:28:38Z</time>
  <cmt>extensions = 1.61</cmt>
    </trkpt>
    <trkpt lat="28.089602" lon="-15.70451">
    <time>1971-01-13T12:29:10Z</time>
  <cmt>extensions = 1.41</cmt>
    </trkpt>
    <trkpt lat="28.089555" lon="-15.704433">
    <time>1971-01-13T12:29:19Z</time>
  <cmt>extensions = 1.40</cmt>
    </trkpt>
    <trkpt lat="28.089458" lon="-15.704333">
    <time>1971-01-13T12:29:32Z</time>
  <cmt>extensions = 0.94</cmt>
    </trkpt>
    <trkpt lat="28.089412" lon="-15.704248">
    <time>1971-01-13T12:29:41Z</time>
  <cmt>extensions = 1.09</cmt>
    </trkpt>
    <trkpt lat="28.089405" lon="-15.704347">
    <time>1971-01-13T12:29:49Z</time>
  <cmt>extensions = 1.87</cmt>
    </trkpt>
    <trkpt lat="28.089425" lon="-15.704492">
    <time>1971-01-13T12:30:02Z</time>
  <cmt>extensions = 1.44</cmt>
    </trkpt>
    <trkpt lat="28.089435" lon="-15.704667">
    <time>1971-01-13T12:30:18Z</time>
  <cmt>extensions = 1.12</cmt>
    </trkpt>
    <trkpt lat="28.089427" lon="-15.704749">
    <time>1971-01-13T12:30:25Z</time>
  <cmt>extensions = 1.13</cmt>
    </trkpt>
    <trkpt lat="28.089444" lon="-15.704867">
    <time>1971-01-13T12:30:36Z</time>
  <cmt>extensions = 1.68</cmt>
    </trkpt>
    <trkpt lat="28.089438" lon="-15.704978">
    <time>1971-01-13T12:30:45Z</time>
  <cmt>extensions = 1.09</cmt>
    </trkpt>
    <trkpt lat="28.089401" lon="-15.705078">
    <time>1971-01-13T12:30:55Z</time>
  <cmt>extensions = 0.43</cmt>
    </trkpt>
    <trkpt lat="28.089375" lon="-15.704993">
    <time>1971-01-13T12:31:03Z</time>
  <cmt>extensions = 1.26</cmt>
    </trkpt>
    <trkpt lat="28.089223" lon="-15.704899">
    <time>1971-01-13T12:31:20Z</time>
  <cmt>extensions = 1.06</cmt>
    </trkpt>
    <trkpt lat="28.089178" lon="-15.704856">
    <time>1971-01-13T12:31:26Z</time>
  <cmt>extensions = 0.94</cmt>
    </trkpt>
    <trkpt lat="28.089098" lon="-15.704851">
    <time>1971-01-13T12:31:34Z</time>
  <cmt>extensions = 0.69</cmt>
    </trkpt>
    <trkpt lat="28.089019" lon="-15.705132">
    <time>1971-01-13T12:32:00Z</time>
  <cmt>extensions = 1.56</cmt>
    </trkpt>
    <trkpt lat="28.088985" lon="-15.705373">
    <time>1971-01-13T12:32:22Z</time>
  <cmt>extensions = 1.75</cmt>
    </trkpt>
    <trkpt lat="28.088949" lon="-15.705482">
    <time>1971-01-13T12:32:32Z</time>
  <cmt>extensions = 0.88</cmt>
    </trkpt>
    <trkpt lat="28.08891" lon="-15.705542">
    <time>1971-01-13T12:32:39Z</time>
  <cmt>extensions = 1.22</cmt>
    </trkpt>
    <trkpt lat="28.088785" lon="-15.705679">
    <time>1971-01-13T12:32:56Z</time>
  <cmt>extensions = 1.19</cmt>
    </trkpt>
    <trkpt lat="28.088711" lon="-15.70579">
    <time>1971-01-13T12:33:08Z</time>
  <cmt>extensions = 1.39</cmt>
    </trkpt>
    <trkpt lat="28.088558" lon="-15.706191">
    <time>1971-01-13T12:33:47Z</time>
  <cmt>extensions = 1.12</cmt>
    </trkpt>
    <trkpt lat="28.088582" lon="-15.706254">
    <time>1971-01-13T12:33:53Z</time>
  <cmt>extensions = 1.07</cmt>
    </trkpt>
    <trkpt lat="28.088544" lon="-15.70633">
    <time>1971-01-13T12:34:01Z</time>
  <cmt>extensions = 1.23</cmt>
    </trkpt>
    <trkpt lat="28.08862" lon="-15.706354">
    <time>1971-01-13T12:34:08Z</time>
  <cmt>extensions = 0.86</cmt>
    </trkpt>
    <trkpt lat="28.088639" lon="-15.706417">
    <time>1971-01-13T12:34:14Z</time>
  <cmt>extensions = 0.99</cmt>
    </trkpt>
    <trkpt lat="28.088663" lon="-15.706584">
    <time>1971-01-13T12:34:29Z</time>
  <cmt>extensions = 1.21</cmt>
    </trkpt>
    <trkpt lat="28.088513" lon="-15.706735">
    <time>1971-01-13T12:34:49Z</time>
  <cmt>extensions = 0.75</cmt>
    </trkpt>
    <trkpt lat="28.088362" lon="-15.706606">
    <time>1971-01-13T12:35:08Z</time>
  <cmt>extensions = 0.31</cmt>
    </trkpt>
    <trkpt lat="28.088171" lon="-15.706336">
    <time>1971-01-13T12:35:39Z</time>
  <cmt>extensions = 0.45</cmt>
    </trkpt>
    <trkpt lat="28.088091" lon="-15.706501">
    <time>1971-01-13T12:35:55Z</time>
  <cmt>extensions = 0.11</cmt>
    </trkpt>
    <trkpt lat="28.088054" lon="-15.707185">
    <time>1971-01-13T12:36:56Z</time>
  <cmt>extensions = 0.32</cmt>
    </trkpt>
    <trkpt lat="28.087999" lon="-15.707117">
    <time>1971-01-13T12:37:04Z</time>
  <cmt>extensions = 0.21</cmt>
    </trkpt>
    <trkpt lat="28.088024" lon="-15.707283">
    <time>1971-01-13T12:37:19Z</time>
  <cmt>extensions = 1.75</cmt>
    </trkpt>
    <trkpt lat="28.08811" lon="-15.707565">
    <time>1971-01-13T12:37:45Z</time>
  <cmt>extensions = 1.47</cmt>
    </trkpt>
    <trkpt lat="28.088087" lon="-15.707723">
    <time>1971-01-13T12:37:59Z</time>
  <cmt>extensions = 1.43</cmt>
    </trkpt>
    <trkpt lat="28.088031" lon="-15.707805">
    <time>1971-01-13T12:38:09Z</time>
  <cmt>extensions = 1.45</cmt>
    </trkpt>
    <trkpt lat="28.08785" lon="-15.707791">
    <time>1971-01-13T12:38:27Z</time>
  <cmt>extensions = 1.19</cmt>
    </trkpt>
    <trkpt lat="28.087624" lon="-15.707734">
    <time>1971-01-13T12:38:50Z</time>
  <cmt>extensions = 1.25</cmt>
    </trkpt>
    <trkpt lat="28.087442" lon="-15.707648">
    <time>1971-01-13T12:39:09Z</time>
  <cmt>extensions = 1.22</cmt>
    </trkpt>
    <trkpt lat="28.087333" lon="-15.707638">
    <time>1971-01-13T12:39:20Z</time>
  <cmt>extensions = 0.94</cmt>
    </trkpt>
    <trkpt lat="28.087227" lon="-15.707609">
    <time>1971-01-13T12:39:31Z</time>
  <cmt>extensions = 0.76</cmt>
    </trkpt>
    <trkpt lat="28.087137" lon="-15.70764">
    <time>1971-01-13T12:39:41Z</time>
  <cmt>extensions = 1.29</cmt>
    </trkpt>
    <trkpt lat="28.08708" lon="-15.707692">
    <time>1971-01-13T12:39:48Z</time>
  <cmt>extensions = 0.33</cmt>
    </trkpt>
    <trkpt lat="28.087062" lon="-15.707775">
    <time>1971-01-13T12:39:55Z</time>
  <cmt>extensions = 1.20</cmt>
    </trkpt>
    <trkpt lat="28.086972" lon="-15.707957">
    <time>1971-01-13T12:40:14Z</time>
  <cmt>extensions = 1.28</cmt>
    </trkpt>
    <trkpt lat="28.086918" lon="-15.708041">
    <time>1971-01-13T12:40:23Z</time>
  <cmt>extensions = 0.85</cmt>
    </trkpt>
    <trkpt lat="28.0869" lon="-15.708142">
    <time>1971-01-13T12:40:32Z</time>
  <cmt>extensions = 1.26</cmt>
    </trkpt>
    <trkpt lat="28.086872" lon="-15.70821">
    <time>1971-01-13T12:40:39Z</time>
  <cmt>extensions = 1.37</cmt>
    </trkpt>
    <trkpt lat="28.086863" lon="-15.70832">
    <time>1971-01-13T12:40:48Z</time>
  <cmt>extensions = 1.58</cmt>
    </trkpt>
    <trkpt lat="28.086838" lon="-15.708439">
    <time>1971-01-13T12:40:59Z</time>
  <cmt>extensions = 1.28</cmt>
    </trkpt>
    <trkpt lat="28.086808" lon="-15.708523">
    <time>1971-01-13T12:41:07Z</time>
  <cmt>extensions = 1.11</cmt>
    </trkpt>
    <trkpt lat="28.086728" lon="-15.708582">
    <time>1971-01-13T12:41:17Z</time>
  <cmt>extensions = 1.33</cmt>
    </trkpt>
    <trkpt lat="28.086589" lon="-15.708771">
    <time>1971-01-13T12:41:38Z</time>
  <cmt>extensions = 1.06</cmt>
    </trkpt>
    <trkpt lat="28.086542" lon="-15.708903">
    <time>1971-01-13T12:41:51Z</time>
  <cmt>extensions = 0.71</cmt>
    </trkpt>
    <trkpt lat="28.086581" lon="-15.708988">
    <time>1971-01-13T12:41:59Z</time>
  <cmt>extensions = 0.60</cmt>
    </trkpt>
    <trkpt lat="28.086547" lon="-15.709115">
    <time>1971-01-13T12:42:11Z</time>
  <cmt>extensions = 1.24</cmt>
    </trkpt>
    <trkpt lat="28.086546" lon="-15.709295">
    <time>1971-01-13T12:42:27Z</time>
  <cmt>extensions = 0.22</cmt>
    </trkpt>
    <trkpt lat="28.086609" lon="-15.709317">
    <time>1971-01-13T12:42:34Z</time>
  <cmt>extensions = 1.20</cmt>
    </trkpt>
    <trkpt lat="28.08684" lon="-15.709208">
    <time>1971-01-13T12:42:59Z</time>
  <cmt>extensions = 1.08</cmt>
    </trkpt>
    <trkpt lat="28.086975" lon="-15.708992">
    <time>1971-01-13T12:43:22Z</time>
  <cmt>extensions = 1.08</cmt>
    </trkpt>
    <trkpt lat="28.087192" lon="-15.708721">
    <time>1971-01-13T12:43:54Z</time>
  <cmt>extensions = 1.18</cmt>
    </trkpt>
    <trkpt lat="28.08748" lon="-15.708477">
    <time>1971-01-13T12:44:30Z</time>
  <cmt>extensions = 1.20</cmt>
    </trkpt>
    <trkpt lat="28.087537" lon="-15.708455">
    <time>1971-01-13T12:44:36Z</time>
  <cmt>extensions = 0.96</cmt>
    </trkpt>
    <trkpt lat="28.087724" lon="-15.708415">
    <time>1971-01-13T12:44:55Z</time>
  <cmt>extensions = 0.27</cmt>
    </trkpt>
    <trkpt lat="28.087821" lon="-15.708531">
    <time>1971-01-13T12:45:09Z</time>
  <cmt>extensions = 1.05</cmt>
    </trkpt>
    <trkpt lat="28.08787" lon="-15.708682">
    <time>1971-01-13T12:45:23Z</time>
  <cmt>extensions = 0.48</cmt>
    </trkpt>
    <trkpt lat="28.087742" lon="-15.708867">
    <time>1971-01-13T12:45:44Z</time>
  <cmt>extensions = 0.94</cmt>
    </trkpt>
    <trkpt lat="28.087682" lon="-15.708797">
    <time>1971-01-13T12:45:53Z</time>
  <cmt>extensions = 0.60</cmt>
    </trkpt>
    <trkpt lat="28.087626" lon="-15.708823">
    <time>1971-01-13T12:45:59Z</time>
  <cmt>extensions = 1.30</cmt>
    </trkpt>
    <trkpt lat="28.087494" lon="-15.708931">
    <time>1971-01-13T12:46:15Z</time>
  <cmt>extensions = 0.78</cmt>
    </trkpt>
    <trkpt lat="28.087425" lon="-15.708964">
    <time>1971-01-13T12:46:22Z</time>
  <cmt>extensions = 1.04</cmt>
    </trkpt>
    <trkpt lat="28.087131" lon="-15.70921">
    <time>1971-01-13T12:46:59Z</time>
  <cmt>extensions = 1.77</cmt>
    </trkpt>
    <trkpt lat="28.086902" lon="-15.709255">
    <time>1971-01-13T12:47:22Z</time>
  <cmt>extensions = 1.09</cmt>
    </trkpt>
    <trkpt lat="28.086671" lon="-15.709341">
    <time>1971-01-13T12:47:46Z</time>
  <cmt>extensions = 0.44</cmt>
    </trkpt>
    <trkpt lat="28.08652" lon="-15.709315">
    <time>1971-01-13T12:48:02Z</time>
  <cmt>extensions = 0.77</cmt>
    </trkpt>
    <trkpt lat="28.086537" lon="-15.709216">
    <time>1971-01-13T12:48:11Z</time>
  <cmt>extensions = 0.43</cmt>
    </trkpt>
    <trkpt lat="28.086562" lon="-15.70908">
    <time>1971-01-13T12:48:23Z</time>
  <cmt>extensions = 0.60</cmt>
    </trkpt>
    <trkpt lat="28.086571" lon="-15.708794">
    <time>1971-01-13T12:48:48Z</time>
  <cmt>extensions = 0.79</cmt>
    </trkpt>
    <trkpt lat="28.086761" lon="-15.708552">
    <time>1971-01-13T12:49:17Z</time>
  <cmt>extensions = 0.81</cmt>
    </trkpt>
    <trkpt lat="28.08673" lon="-15.708654">
    <time>1971-01-13T12:49:26Z</time>
  <cmt>extensions = 0.65</cmt>
    </trkpt>
    <trkpt lat="28.086693" lon="-15.70874">
    <time>1971-01-13T12:49:35Z</time>
  <cmt>extensions = 1.58</cmt>
    </trkpt>
    <trkpt lat="28.086624" lon="-15.708834">
    <time>1971-01-13T12:49:45Z</time>
  <cmt>extensions = 1.00</cmt>
    </trkpt>
    <trkpt lat="28.086602" lon="-15.708917">
    <time>1971-01-13T12:49:53Z</time>
  <cmt>extensions = 1.24</cmt>
    </trkpt>
    <trkpt lat="28.086518" lon="-15.708948">
    <time>1971-01-13T12:50:02Z</time>
  <cmt>extensions = 0.37</cmt>
    </trkpt>
    <trkpt lat="28.086494" lon="-15.709054">
    <time>1971-01-13T12:50:12Z</time>
  <cmt>extensions = 0.37</cmt>
    </trkpt>
    <trkpt lat="28.086594" lon="-15.709504">
    <time>1971-01-13T12:50:53Z</time>
  <cmt>extensions = 0.58</cmt>
    </trkpt>
    <trkpt lat="28.086605" lon="-15.709596">
    <time>1971-01-13T12:51:01Z</time>
  <cmt>extensions = 1.30</cmt>
    </trkpt>
    <trkpt lat="28.086488" lon="-15.709741">
    <time>1971-01-13T12:51:18Z</time>
  <cmt>extensions = 1.12</cmt>
    </trkpt>
    <trkpt lat="28.086126" lon="-15.710039">
    <time>1971-01-13T12:52:03Z</time>
  <cmt>extensions = 1.37</cmt>
    </trkpt>
    <trkpt lat="28.085913" lon="-15.710161">
    <time>1971-01-13T12:52:27Z</time>
  <cmt>extensions = 1.33</cmt>
    </trkpt>
    <trkpt lat="28.08582" lon="-15.710183">
    <time>1971-01-13T12:52:36Z</time>
  <cmt>extensions = 1.32</cmt>
    </trkpt>
    <trkpt lat="28.085381" lon="-15.710154">
    <time>1971-01-13T12:53:20Z</time>
  <cmt>extensions = 1.29</cmt>
    </trkpt>
    <trkpt lat="28.085292" lon="-15.710157">
    <time>1971-01-13T12:53:29Z</time>
  <cmt>extensions = 0.43</cmt>
    </trkpt>
    <trkpt lat="28.085146" lon="-15.710173">
    <time>1971-01-13T12:53:43Z</time>
  <cmt>extensions = 0.96</cmt>
    </trkpt>
    <trkpt lat="28.084932" lon="-15.710139">
    <time>1971-01-13T12:54:05Z</time>
  <cmt>extensions = 1.15</cmt>
    </trkpt>
    <trkpt lat="28.084816" lon="-15.710095">
    <time>1971-01-13T12:54:17Z</time>
  <cmt>extensions = 0.76</cmt>
    </trkpt>
    <trkpt lat="28.084874" lon="-15.710084">
    <time>1971-01-13T12:54:23Z</time>
  <cmt>extensions = 0.04</cmt>
    </trkpt>
    <trkpt lat="28.084811" lon="-15.710095">
    <time>1971-01-13T12:54:29Z</time>
  <cmt>extensions = 0.55</cmt>
    </trkpt>
    <trkpt lat="28.085139" lon="-15.710131">
    <time>1971-01-13T12:55:02Z</time>
  <cmt>extensions = 1.27</cmt>
    </trkpt>
    <trkpt lat="28.085376" lon="-15.710113">
    <time>1971-01-13T12:55:26Z</time>
  <cmt>extensions = 1.39</cmt>
    </trkpt>
    <trkpt lat="28.085808" lon="-15.710145">
    <time>1971-01-13T12:56:09Z</time>
  <cmt>extensions = 1.19</cmt>
    </trkpt>
    <trkpt lat="28.085874" lon="-15.710144">
    <time>1971-01-13T12:56:16Z</time>
  <cmt>extensions = 0.73</cmt>
    </trkpt>
    <trkpt lat="28.086136" lon="-15.710021">
    <time>1971-01-13T12:56:44Z</time>
  <cmt>extensions = 1.32</cmt>
    </trkpt>
    <trkpt lat="28.086212" lon="-15.709948">
    <time>1971-01-13T12:56:54Z</time>
  <cmt>extensions = 1.23</cmt>
    </trkpt>
    <trkpt lat="28.086419" lon="-15.709852">
    <time>1971-01-13T12:57:16Z</time>
  <cmt>extensions = 1.31</cmt>
    </trkpt>
    <trkpt lat="28.086569" lon="-15.709645">
    <time>1971-01-13T12:57:40Z</time>
  <cmt>extensions = 1.32</cmt>
    </trkpt>
    <trkpt lat="28.086601" lon="-15.709571">
    <time>1971-01-13T12:57:47Z</time>
  <cmt>extensions = 0.16</cmt>
    </trkpt>
    <trkpt lat="28.086617" lon="-15.709491">
    <time>1971-01-13T12:57:54Z</time>
  <cmt>extensions = 1.25</cmt>
    </trkpt>
    <trkpt lat="28.08661" lon="-15.709353">
    <time>1971-01-13T12:58:07Z</time>
  <cmt>extensions = 0.47</cmt>
    </trkpt>
    <trkpt lat="28.086639" lon="-15.709236">
    <time>1971-01-13T12:58:17Z</time>
  <cmt>extensions = 0.85</cmt>
    </trkpt>
    <trkpt lat="28.086587" lon="-15.709207">
    <time>1971-01-13T12:58:23Z</time>
  <cmt>extensions = 0.54</cmt>
    </trkpt>
    <trkpt lat="28.086581" lon="-15.70896">
    <time>1971-01-13T12:58:45Z</time>
  <cmt>extensions = 0.59</cmt>
    </trkpt>
    <trkpt lat="28.086552" lon="-15.708869">
    <time>1971-01-13T12:58:53Z</time>
  <cmt>extensions = 0.68</cmt>
    </trkpt>
    <trkpt lat="28.086566" lon="-15.708733">
    <time>1971-01-13T12:59:06Z</time>
  <cmt>extensions = 0.43</cmt>
    </trkpt>
    <trkpt lat="28.086627" lon="-15.708707">
    <time>1971-01-13T12:59:12Z</time>
  <cmt>extensions = 0.60</cmt>
    </trkpt>
    <trkpt lat="28.086668" lon="-15.708612">
    <time>1971-01-13T12:59:21Z</time>
  <cmt>extensions = 0.61</cmt>
    </trkpt>
    <trkpt lat="28.086747" lon="-15.708574">
    <time>1971-01-13T12:59:30Z</time>
  <cmt>extensions = 0.33</cmt>
    </trkpt>
    <trkpt lat="28.086835" lon="-15.708449">
    <time>1971-01-13T12:59:44Z</time>
  <cmt>extensions = 1.09</cmt>
    </trkpt>
    <trkpt lat="28.086856" lon="-15.708349">
    <time>1971-01-13T12:59:53Z</time>
  <cmt>extensions = 0.91</cmt>
    </trkpt>
    <trkpt lat="28.086863" lon="-15.708254">
    <time>1971-01-13T13:00:02Z</time>
  <cmt>extensions = 1.06</cmt>
    </trkpt>
    <trkpt lat="28.086894" lon="-15.708159">
    <time>1971-01-13T13:00:10Z</time>
  <cmt>extensions = 0.99</cmt>
    </trkpt>
    <trkpt lat="28.086905" lon="-15.708061">
    <time>1971-01-13T13:00:19Z</time>
  <cmt>extensions = 0.61</cmt>
    </trkpt>
    <trkpt lat="28.086961" lon="-15.707956">
    <time>1971-01-13T13:00:30Z</time>
  <cmt>extensions = 0.41</cmt>
    </trkpt>
    <trkpt lat="28.08702" lon="-15.707867">
    <time>1971-01-13T13:00:40Z</time>
  <cmt>extensions = 1.38</cmt>
    </trkpt>
    <trkpt lat="28.087041" lon="-15.70778">
    <time>1971-01-13T13:00:48Z</time>
  <cmt>extensions = 1.11</cmt>
    </trkpt>
    <trkpt lat="28.087117" lon="-15.707648">
    <time>1971-01-13T13:01:02Z</time>
  <cmt>extensions = 0.97</cmt>
    </trkpt>
    <trkpt lat="28.087238" lon="-15.707588">
    <time>1971-01-13T13:01:15Z</time>
  <cmt>extensions = 1.19</cmt>
    </trkpt>
    <trkpt lat="28.087386" lon="-15.707602">
    <time>1971-01-13T13:01:30Z</time>
  <cmt>extensions = 1.11</cmt>
    </trkpt>
    <trkpt lat="28.087867" lon="-15.70774">
    <time>1971-01-13T13:02:19Z</time>
  <cmt>extensions = 0.42</cmt>
    </trkpt>
    <trkpt lat="28.088081" lon="-15.707731">
    <time>1971-01-13T13:02:40Z</time>
  <cmt>extensions = 1.24</cmt>
    </trkpt>
    <trkpt lat="28.088131" lon="-15.707667">
    <time>1971-01-13T13:02:48Z</time>
  <cmt>extensions = 1.02</cmt>
    </trkpt>
    <trkpt lat="28.088091" lon="-15.707392">
    <time>1971-01-13T13:03:13Z</time>
  <cmt>extensions = 1.24</cmt>
    </trkpt>
    <trkpt lat="28.088037" lon="-15.707163">
    <time>1971-01-13T13:03:34Z</time>
  <cmt>extensions = 1.45</cmt>
    </trkpt>
    <trkpt lat="28.088086" lon="-15.706921">
    <time>1971-01-13T13:03:56Z</time>
  <cmt>extensions = 1.43</cmt>
    </trkpt>
    <trkpt lat="28.0881" lon="-15.706411">
    <time>1971-01-13T13:04:41Z</time>
  <cmt>extensions = 1.36</cmt>
    </trkpt>
    <trkpt lat="28.088145" lon="-15.706346">
    <time>1971-01-13T13:04:48Z</time>
  <cmt>extensions = 1.42</cmt>
    </trkpt>
    <trkpt lat="28.08823" lon="-15.706348">
    <time>1971-01-13T13:04:56Z</time>
  <cmt>extensions = 0.40</cmt>
    </trkpt>
    <trkpt lat="28.088296" lon="-15.706501">
    <time>1971-01-13T13:05:12Z</time>
  <cmt>extensions = 1.45</cmt>
    </trkpt>
    <trkpt lat="28.088461" lon="-15.706663">
    <time>1971-01-13T13:05:33Z</time>
  <cmt>extensions = 1.52</cmt>
    </trkpt>
    <trkpt lat="28.088535" lon="-15.706707">
    <time>1971-01-13T13:05:42Z</time>
  <cmt>extensions = 1.33</cmt>
    </trkpt>
    <trkpt lat="28.088664" lon="-15.706531">
    <time>1971-01-13T13:06:02Z</time>
  <cmt>extensions = 1.30</cmt>
    </trkpt>
    <trkpt lat="28.088635" lon="-15.706346">
    <time>1971-01-13T13:06:18Z</time>
  <cmt>extensions = 0.90</cmt>
    </trkpt>
    <trkpt lat="28.088582" lon="-15.70638">
    <time>1971-01-13T13:06:24Z</time>
  <cmt>extensions = 1.13</cmt>
    </trkpt>
    <trkpt lat="28.088583" lon="-15.706219">
    <time>1971-01-13T13:06:39Z</time>
  <cmt>extensions = 1.20</cmt>
    </trkpt>
    <trkpt lat="28.088597" lon="-15.706138">
    <time>1971-01-13T13:06:46Z</time>
  <cmt>extensions = 1.35</cmt>
    </trkpt>
    <trkpt lat="28.088664" lon="-15.705985">
    <time>1971-01-13T13:07:01Z</time>
  <cmt>extensions = 1.20</cmt>
    </trkpt>
    <trkpt lat="28.088711" lon="-15.705837">
    <time>1971-01-13T13:07:15Z</time>
  <cmt>extensions = 1.03</cmt>
    </trkpt>
    <trkpt lat="28.088866" lon="-15.705616">
    <time>1971-01-13T13:07:40Z</time>
  <cmt>extensions = 1.20</cmt>
    </trkpt>
    <trkpt lat="28.08895" lon="-15.70547">
    <time>1971-01-13T13:07:55Z</time>
  <cmt>extensions = 1.12</cmt>
    </trkpt>
    <trkpt lat="28.088966" lon="-15.705396">
    <time>1971-01-13T13:08:02Z</time>
  <cmt>extensions = 1.00</cmt>
    </trkpt>
    <trkpt lat="28.088994" lon="-15.705334">
    <time>1971-01-13T13:08:08Z</time>
  <cmt>extensions = 1.14</cmt>
    </trkpt>
    <trkpt lat="28.088972" lon="-15.705177">
    <time>1971-01-13T13:08:22Z</time>
  <cmt>extensions = 1.12</cmt>
    </trkpt>
    <trkpt lat="28.089048" lon="-15.704937">
    <time>1971-01-13T13:08:45Z</time>
  <cmt>extensions = 1.32</cmt>
    </trkpt>
    <trkpt lat="28.089127" lon="-15.704841">
    <time>1971-01-13T13:08:56Z</time>
  <cmt>extensions = 1.07</cmt>
    </trkpt>
    <trkpt lat="28.089224" lon="-15.704849">
    <time>1971-01-13T13:09:06Z</time>
  <cmt>extensions = 1.16</cmt>
    </trkpt>
    <trkpt lat="28.089265" lon="-15.704924">
    <time>1971-01-13T13:09:14Z</time>
  <cmt>extensions = 1.06</cmt>
    </trkpt>
    <trkpt lat="28.089355" lon="-15.70496">
    <time>1971-01-13T13:09:23Z</time>
  <cmt>extensions = 1.06</cmt>
    </trkpt>
    <trkpt lat="28.089443" lon="-15.705099">
    <time>1971-01-13T13:09:38Z</time>
  <cmt>extensions = 1.20</cmt>
    </trkpt>
    <trkpt lat="28.089461" lon="-15.704981">
    <time>1971-01-13T13:09:49Z</time>
  <cmt>extensions = 1.27</cmt>
    </trkpt>
    <trkpt lat="28.089431" lon="-15.704628">
    <time>1971-01-13T13:10:20Z</time>
  <cmt>extensions = 0.79</cmt>
    </trkpt>
    <trkpt lat="28.089451" lon="-15.704478">
    <time>1971-01-13T13:10:34Z</time>
  <cmt>extensions = 1.24</cmt>
    </trkpt>
    <trkpt lat="28.089455" lon="-15.70428">
    <time>1971-01-13T13:10:51Z</time>
  <cmt>extensions = 1.28</cmt>
    </trkpt>
    <trkpt lat="28.089556" lon="-15.704362">
    <time>1971-01-13T13:11:03Z</time>
  <cmt>extensions = 1.08</cmt>
    </trkpt>
    <trkpt lat="28.089997" lon="-15.704798">
    <time>1971-01-13T13:12:02Z</time>
  <cmt>extensions = 1.11</cmt>
    </trkpt>
    <trkpt lat="28.090107" lon="-15.704822">
    <time>1971-01-13T13:12:13Z</time>
  <cmt>extensions = 0.96</cmt>
    </trkpt>
    <trkpt lat="28.090158" lon="-15.704847">
    <time>1971-01-13T13:12:19Z</time>
  <cmt>extensions = 0.69</cmt>
    </trkpt>
    <trkpt lat="28.090217" lon="-15.705081">
    <time>1971-01-13T13:12:40Z</time>
  <cmt>extensions = 1.04</cmt>
    </trkpt>
    <trkpt lat="28.090236" lon="-15.70524">
    <time>1971-01-13T13:12:54Z</time>
  <cmt>extensions = 0.93</cmt>
    </trkpt>
    <trkpt lat="28.090324" lon="-15.705271">
    <time>1971-01-13T13:13:04Z</time>
  <cmt>extensions = 0.54</cmt>
    </trkpt>
    <trkpt lat="28.090467" lon="-15.705207">
    <time>1971-01-13T13:13:19Z</time>
  <cmt>extensions = 0.49</cmt>
    </trkpt>
    <trkpt lat="28.090842" lon="-15.705981">
    <time>1971-01-13T13:14:37Z</time>
  <cmt>extensions = 1.43</cmt>
    </trkpt>
    <trkpt lat="28.09122" lon="-15.706474">
    <time>1971-01-13T13:15:35Z</time>
  <cmt>extensions = 1.48</cmt>
    </trkpt>
    <trkpt lat="28.091397" lon="-15.706488">
    <time>1971-01-13T13:15:52Z</time>
  <cmt>extensions = 1.23</cmt>
    </trkpt>
    <trkpt lat="28.091716" lon="-15.706443">
    <time>1971-01-13T13:16:24Z</time>
  <cmt>extensions = 1.56</cmt>
    </trkpt>
    <trkpt lat="28.091977" lon="-15.706376">
    <time>1971-01-13T13:16:51Z</time>
  <cmt>extensions = 1.42</cmt>
    </trkpt>
    <trkpt lat="28.092059" lon="-15.706103">
    <time>1971-01-13T13:17:16Z</time>
  <cmt>extensions = 1.35</cmt>
    </trkpt>
    <trkpt lat="28.092164" lon="-15.705892">
    <time>1971-01-13T13:17:38Z</time>
  <cmt>extensions = 1.19</cmt>
    </trkpt>
    <trkpt lat="28.092123" lon="-15.705839">
    <time>1971-01-13T13:17:44Z</time>
  <cmt>extensions = 0.45</cmt>
    </trkpt>
    <trkpt lat="28.092178" lon="-15.705743">
    <time>1971-01-13T13:17:54Z</time>
  <cmt>extensions = 0.38</cmt>
    </trkpt>
    <trkpt lat="28.092255" lon="-15.705766">
    <time>1971-01-13T13:18:02Z</time>
  <cmt>extensions = 0.47</cmt>
    </trkpt>
    <trkpt lat="28.092345" lon="-15.705787">
    <time>1971-01-13T13:18:11Z</time>
  <cmt>extensions = 0.40</cmt>
    </trkpt>
    <trkpt lat="28.092473" lon="-15.705898">
    <time>1971-01-13T13:18:27Z</time>
  <cmt>extensions = 1.06</cmt>
    </trkpt>
    <trkpt lat="28.092646" lon="-15.705986">
    <time>1971-01-13T13:18:46Z</time>
  <cmt>extensions = 1.17</cmt>
    </trkpt>
    <trkpt lat="28.092953" lon="-15.706021">
    <time>1971-01-13T13:19:17Z</time>
  <cmt>extensions = 1.20</cmt>
    </trkpt>
    <trkpt lat="28.093161" lon="-15.706009">
    <time>1971-01-13T13:19:38Z</time>
  <cmt>extensions = 1.36</cmt>
    </trkpt>
    <trkpt lat="28.093327" lon="-15.705961">
    <time>1971-01-13T13:19:55Z</time>
  <cmt>extensions = 1.00</cmt>
    </trkpt>
    <trkpt lat="28.093413" lon="-15.7059">
    <time>1971-01-13T13:20:05Z</time>
  <cmt>extensions = 0.87</cmt>
    </trkpt>
    <trkpt lat="28.093394" lon="-15.705735">
    <time>1971-01-13T13:20:20Z</time>
  <cmt>extensions = 1.01</cmt>
    </trkpt>
    <trkpt lat="28.093402" lon="-15.705608">
    <time>1971-01-13T13:20:31Z</time>
  <cmt>extensions = 0.74</cmt>
    </trkpt>
    <trkpt lat="28.093356" lon="-15.70556">
    <time>1971-01-13T13:20:37Z</time>
  <cmt>extensions = 0.99</cmt>
    </trkpt>
    <trkpt lat="28.093232" lon="-15.70547">
    <time>1971-01-13T13:20:52Z</time>
  <cmt>extensions = 1.02</cmt>
    </trkpt>
    <trkpt lat="28.093054" lon="-15.705513">
    <time>1971-01-13T13:21:10Z</time>
  <cmt>extensions = 1.07</cmt>
    </trkpt>
    <trkpt lat="28.092942" lon="-15.705528">
    <time>1971-01-13T13:21:21Z</time>
  <cmt>extensions = 1.05</cmt>
    </trkpt>
    <trkpt lat="28.092858" lon="-15.70549">
    <time>1971-01-13T13:21:30Z</time>
  <cmt>extensions = 1.26</cmt>
    </trkpt>
    <trkpt lat="28.092359" lon="-15.705039">
    <time>1971-01-13T13:22:34Z</time>
  <cmt>extensions = 1.08</cmt>
    </trkpt>
    <trkpt lat="28.092152" lon="-15.70473">
    <time>1971-01-13T13:23:08Z</time>
  <cmt>extensions = 1.24</cmt>
    </trkpt>
    <trkpt lat="28.091731" lon="-15.704272">
    <time>1971-01-13T13:24:07Z</time>
  <cmt>extensions = 1.10</cmt>
    </trkpt>
    <trkpt lat="28.091539" lon="-15.704104">
    <time>1971-01-13T13:24:31Z</time>
  <cmt>extensions = 1.32</cmt>
    </trkpt>
    <trkpt lat="28.091171" lon="-15.703869">
    <time>1971-01-13T13:25:13Z</time>
  <cmt>extensions = 1.25</cmt>
    </trkpt>
    <trkpt lat="28.090979" lon="-15.703785">
    <time>1971-01-13T13:25:34Z</time>
  <cmt>extensions = 1.21</cmt>
    </trkpt>
    <trkpt lat="28.090667" lon="-15.703764">
    <time>1971-01-13T13:26:05Z</time>
  <cmt>extensions = 1.20</cmt>
    </trkpt>
    <trkpt lat="28.090654" lon="-15.703685">
    <time>1971-01-13T13:26:12Z</time>
  <cmt>extensions = 1.13</cmt>
    </trkpt>
    <trkpt lat="28.091144" lon="-15.703513">
    <time>1971-01-13T13:27:03Z</time>
  <cmt>extensions = 1.21</cmt>
    </trkpt>
    <trkpt lat="28.091283" lon="-15.70349">
    <time>1971-01-13T13:27:17Z</time>
  <cmt>extensions = 0.82</cmt>
    </trkpt>
    <trkpt lat="28.091349" lon="-15.70347">
    <time>1971-01-13T13:27:24Z</time>
  <cmt>extensions = 0.38</cmt>
    </trkpt>
    <trkpt lat="28.091642" lon="-15.703443">
    <time>1971-01-13T13:27:53Z</time>
  <cmt>extensions = 1.12</cmt>
    </trkpt>
    <trkpt lat="28.091701" lon="-15.703413">
    <time>1971-01-13T13:28:00Z</time>
  <cmt>extensions = 0.28</cmt>
    </trkpt>
    <trkpt lat="28.091796" lon="-15.703269">
    <time>1971-01-13T13:28:15Z</time>
  <cmt>extensions = 1.02</cmt>
    </trkpt>
    <trkpt lat="28.091784" lon="-15.703142">
    <time>1971-01-13T13:28:27Z</time>
  <cmt>extensions = 1.25</cmt>
    </trkpt>
    <trkpt lat="28.091715" lon="-15.702933">
    <time>1971-01-13T13:28:46Z</time>
  <cmt>extensions = 1.15</cmt>
    </trkpt>
    <trkpt lat="28.091612" lon="-15.702694">
    <time>1971-01-13T13:29:10Z</time>
  <cmt>extensions = 1.19</cmt>
    </trkpt>
    <trkpt lat="28.091442" lon="-15.702403">
    <time>1971-01-13T13:29:41Z</time>
  <cmt>extensions = 1.20</cmt>
    </trkpt>
    <trkpt lat="28.091338" lon="-15.702418">
    <time>1971-01-13T13:29:51Z</time>
  <cmt>extensions = 1.37</cmt>
    </trkpt>
    <trkpt lat="28.091286" lon="-15.702523">
    <time>1971-01-13T13:30:02Z</time>
  <cmt>extensions = 1.18</cmt>
    </trkpt>
    <trkpt lat="28.091084" lon="-15.702598">
    <time>1971-01-13T13:30:23Z</time>
  <cmt>extensions = 1.21</cmt>
    </trkpt>
    <trkpt lat="28.090851" lon="-15.702622">
    <time>1971-01-13T13:30:46Z</time>
  <cmt>extensions = 1.30</cmt>
    </trkpt>
    <trkpt lat="28.090623" lon="-15.702608">
    <time>1971-01-13T13:31:09Z</time>
  <cmt>extensions = 1.21</cmt>
    </trkpt>
    <trkpt lat="28.090591" lon="-15.702553">
    <time>1971-01-13T13:31:15Z</time>
  <cmt>extensions = 0.35</cmt>
    </trkpt>
    <trkpt lat="28.090618" lon="-15.702318">
    <time>1971-01-13T13:31:36Z</time>
  <cmt>extensions = 1.22</cmt>
    </trkpt>
    <trkpt lat="28.090638" lon="-15.702234">
    <time>1971-01-13T13:31:44Z</time>
  <cmt>extensions = 1.22</cmt>
    </trkpt>
    <trkpt lat="28.090584" lon="-15.702068">
    <time>1971-01-13T13:31:59Z</time>
  <cmt>extensions = 1.02</cmt>
    </trkpt>
    <trkpt lat="28.090348" lon="-15.701658">
    <time>1971-01-13T13:32:42Z</time>
  <cmt>extensions = 1.21</cmt>
    </trkpt>
    <trkpt lat="28.090419" lon="-15.701362">
    <time>1971-01-13T13:33:10Z</time>
  <cmt>extensions = 1.31</cmt>
    </trkpt>
    <trkpt lat="28.090366" lon="-15.701212">
    <time>1971-01-13T13:33:24Z</time>
  <cmt>extensions = 0.99</cmt>
    </trkpt>
    <trkpt lat="28.090307" lon="-15.701213">
    <time>1971-01-13T13:33:30Z</time>
  <cmt>extensions = 0.38</cmt>
    </trkpt>
    <trkpt lat="28.090147" lon="-15.701319">
    <time>1971-01-13T13:33:48Z</time>
  <cmt>extensions = 1.03</cmt>
    </trkpt>
    <trkpt lat="28.090062" lon="-15.70133">
    <time>1971-01-13T13:33:57Z</time>
  <cmt>extensions = 0.95</cmt>
    </trkpt>
    <trkpt lat="28.089922" lon="-15.701368">
    <time>1971-01-13T13:34:11Z</time>
  <cmt>extensions = 1.00</cmt>
    </trkpt>
    <trkpt lat="28.089833" lon="-15.701343">
    <time>1971-01-13T13:34:20Z</time>
  <cmt>extensions = 1.13</cmt>
    </trkpt>
    <trkpt lat="28.08966" lon="-15.701326">
    <time>1971-01-13T13:34:38Z</time>
  <cmt>extensions = 1.10</cmt>
    </trkpt>
    <trkpt lat="28.089505" lon="-15.701331">
    <time>1971-01-13T13:34:53Z</time>
  <cmt>extensions = 0.78</cmt>
    </trkpt>
    <trkpt lat="28.089457" lon="-15.701275">
    <time>1971-01-13T13:35:00Z</time>
  <cmt>extensions = 0.48</cmt>
    </trkpt>
    <trkpt lat="28.089293" lon="-15.70116">
    <time>1971-01-13T13:35:19Z</time>
  <cmt>extensions = 1.13</cmt>
    </trkpt>
    <trkpt lat="28.089105" lon="-15.700987">
    <time>1971-01-13T13:35:43Z</time>
  <cmt>extensions = 1.12</cmt>
    </trkpt>
    <trkpt lat="28.089018" lon="-15.700928">
    <time>1971-01-13T13:35:53Z</time>
  <cmt>extensions = 0.56</cmt>
    </trkpt>
    <trkpt lat="28.088934" lon="-15.700791">
    <time>1971-01-13T13:36:08Z</time>
  <cmt>extensions = 1.09</cmt>
    </trkpt>
    <trkpt lat="28.088076" lon="-15.699811">
    <time>1971-01-13T13:38:10Z</time>
  <cmt>extensions = 1.12</cmt>
    </trkpt>
    <trkpt lat="28.087999" lon="-15.699651">
    <time>1971-01-13T13:38:26Z</time>
  <cmt>extensions = 1.12</cmt>
    </trkpt>
    <trkpt lat="28.087961" lon="-15.699553">
    <time>1971-01-13T13:38:35Z</time>
  <cmt>extensions = 1.28</cmt>
    </trkpt>
    <trkpt lat="28.087951" lon="-15.699452">
    <time>1971-01-13T13:38:44Z</time>
  <cmt>extensions = 1.18</cmt>
    </trkpt>
    <trkpt lat="28.087831" lon="-15.699309">
    <time>1971-01-13T13:39:02Z</time>
  <cmt>extensions = 1.08</cmt>
    </trkpt>
    <trkpt lat="28.087735" lon="-15.699241">
    <time>1971-01-13T13:39:13Z</time>
  <cmt>extensions = 0.10</cmt>
    </trkpt>
    <trkpt lat="28.087287" lon="-15.698859">
    <time>1971-01-13T13:40:09Z</time>
  <cmt>extensions = 1.06</cmt>
    </trkpt>
    <trkpt lat="28.087296" lon="-15.698753">
    <time>1971-01-13T13:40:19Z</time>
  <cmt>extensions = 1.33</cmt>
    </trkpt>
    <trkpt lat="28.087319" lon="-15.698671">
    <time>1971-01-13T13:40:26Z</time>
  <cmt>extensions = 1.41</cmt>
    </trkpt>
    <trkpt lat="28.087359" lon="-15.698464">
    <time>1971-01-13T13:40:45Z</time>
  <cmt>extensions = 1.30</cmt>
    </trkpt>
    <trkpt lat="28.087384" lon="-15.69817">
    <time>1971-01-13T13:41:11Z</time>
  <cmt>extensions = 1.28</cmt>
    </trkpt>
    <trkpt lat="28.087424" lon="-15.698022">
    <time>1971-01-13T13:41:25Z</time>
  <cmt>extensions = 1.38</cmt>
    </trkpt>
    <trkpt lat="28.087426" lon="-15.697951">
    <time>1971-01-13T13:41:31Z</time>
  <cmt>extensions = 1.40</cmt>
    </trkpt>
    <trkpt lat="28.087384" lon="-15.697581">
    <time>1971-01-13T13:42:04Z</time>
  <cmt>extensions = 1.41</cmt>
    </trkpt>
    <trkpt lat="28.087127" lon="-15.697045">
    <time>1971-01-13T13:42:58Z</time>
  <cmt>extensions = 1.40</cmt>
    </trkpt>
    <trkpt lat="28.086951" lon="-15.69683">
    <time>1971-01-13T13:43:24Z</time>
  <cmt>extensions = 1.44</cmt>
    </trkpt>
    <trkpt lat="28.086722" lon="-15.696633">
    <time>1971-01-13T13:43:52Z</time>
  <cmt>extensions = 1.45</cmt>
    </trkpt>
    <trkpt lat="28.086421" lon="-15.696284">
    <time>1971-01-13T13:44:35Z</time>
  <cmt>extensions = 1.37</cmt>
    </trkpt>
    <trkpt lat="28.086353" lon="-15.696254">
    <time>1971-01-13T13:44:43Z</time>
  <cmt>extensions = 0.48</cmt>
    </trkpt>
    <trkpt lat="28.086429" lon="-15.696186">
    <time>1971-01-13T13:44:52Z</time>
  <cmt>extensions = 0.32</cmt>
    </trkpt>
    <trkpt lat="28.086371" lon="-15.696167">
    <time>1971-01-13T13:44:58Z</time>
  <cmt>extensions = 0.07</cmt>
    </trkpt>
    <trkpt lat="28.086399" lon="-15.696244">
    <time>1971-01-13T13:45:06Z</time>
  <cmt>extensions = 0.47</cmt>
    </trkpt>
    <trkpt lat="28.086425" lon="-15.696185">
    <time>1971-01-13T13:45:11Z</time>
  <cmt>extensions = 0.34</cmt>
    </trkpt>
    <trkpt lat="28.086485" lon="-15.696179">
    <time>1971-01-13T13:45:17Z</time>
  <cmt>extensions = 0.96</cmt>
    </trkpt>
    <trkpt lat="28.086552" lon="-15.696193">
    <time>1971-01-13T13:45:24Z</time>
  <cmt>extensions = 1.15</cmt>
    </trkpt>
    <trkpt lat="28.08663" lon="-15.696233">
    <time>1971-01-13T13:45:33Z</time>
  <cmt>extensions = 1.19</cmt>
    </trkpt>
    <trkpt lat="28.086733" lon="-15.696255">
    <time>1971-01-13T13:45:43Z</time>
  <cmt>extensions = 1.06</cmt>
    </trkpt>
    <trkpt lat="28.086818" lon="-15.696292">
    <time>1971-01-13T13:45:52Z</time>
  <cmt>extensions = 1.13</cmt>
    </trkpt>
    <trkpt lat="28.086905" lon="-15.696338">
    <time>1971-01-13T13:46:02Z</time>
  <cmt>extensions = 1.33</cmt>
    </trkpt>
    <trkpt lat="28.087045" lon="-15.696391">
    <time>1971-01-13T13:46:17Z</time>
  <cmt>extensions = 1.29</cmt>
    </trkpt>
    <trkpt lat="28.087182" lon="-15.696387">
    <time>1971-01-13T13:46:30Z</time>
  <cmt>extensions = 1.27</cmt>
    </trkpt>
    <trkpt lat="28.087305" lon="-15.696399">
    <time>1971-01-13T13:46:43Z</time>
  <cmt>extensions = 1.04</cmt>
    </trkpt>
    <trkpt lat="28.087405" lon="-15.696397">
    <time>1971-01-13T13:46:53Z</time>
  <cmt>extensions = 0.93</cmt>
    </trkpt>
    <trkpt lat="28.087484" lon="-15.696421">
    <time>1971-01-13T13:47:01Z</time>
  <cmt>extensions = 0.83</cmt>
    </trkpt>
    <trkpt lat="28.087542" lon="-15.69643">
    <time>1971-01-13T13:47:07Z</time>
  <cmt>extensions = 0.72</cmt>
    </trkpt>
    <trkpt lat="28.087641" lon="-15.69647">
    <time>1971-01-13T13:47:17Z</time>
  <cmt>extensions = 0.74</cmt>
    </trkpt>
    <trkpt lat="28.087715" lon="-15.696475">
    <time>1971-01-13T13:47:24Z</time>
  <cmt>extensions = 0.63</cmt>
    </trkpt>
    <trkpt lat="28.087791" lon="-15.696522">
    <time>1971-01-13T13:47:33Z</time>
  <cmt>extensions = 0.80</cmt>
    </trkpt>
    <trkpt lat="28.087898" lon="-15.696582">
    <time>1971-01-13T13:47:45Z</time>
  <cmt>extensions = 0.81</cmt>
    </trkpt>
    <trkpt lat="28.088161" lon="-15.696663">
    <time>1971-01-13T13:48:12Z</time>
  <cmt>extensions = 0.86</cmt>
    </trkpt>
    <trkpt lat="28.088215" lon="-15.696715">
    <time>1971-01-13T13:48:19Z</time>
  <cmt>extensions = 0.72</cmt>
    </trkpt>
    <trkpt lat="28.088321" lon="-15.696783">
    <time>1971-01-13T13:48:31Z</time>
  <cmt>extensions = 0.72</cmt>
    </trkpt>
    <trkpt lat="28.088402" lon="-15.696842">
    <time>1971-01-13T13:48:41Z</time>
  <cmt>extensions = 0.27</cmt>
    </trkpt>
    <trkpt lat="28.08846" lon="-15.69691">
    <time>1971-01-13T13:48:49Z</time>
  <cmt>extensions = 0.22</cmt>
    </trkpt>
    <trkpt lat="28.088517" lon="-15.696902">
    <time>1971-01-13T13:48:55Z</time>
  <cmt>extensions = 0.77</cmt>
    </trkpt>
    <trkpt lat="28.088586" lon="-15.696978">
    <time>1971-01-13T13:49:05Z</time>
  <cmt>extensions = 0.71</cmt>
    </trkpt>
    <trkpt lat="28.088686" lon="-15.696962">
    <time>1971-01-13T13:49:15Z</time>
  <cmt>extensions = 0.67</cmt>
    </trkpt>
    <trkpt lat="28.088751" lon="-15.697013">
    <time>1971-01-13T13:49:23Z</time>
  <cmt>extensions = 0.73</cmt>
    </trkpt>
    <trkpt lat="28.088786" lon="-15.696977">
    <time>1971-01-13T13:49:27Z</time>
  <cmt>extensions = 1.01</cmt>
    </trkpt>
    <trkpt lat="28.088979" lon="-15.697147">
    <time>1971-01-13T13:49:52Z</time>
  <cmt>extensions = 1.20</cmt>
    </trkpt>
    <trkpt lat="28.089032" lon="-15.697102">
    <time>1971-01-13T13:49:58Z</time>
  <cmt>extensions = 0.58</cmt>
    </trkpt>
    <trkpt lat="28.089136" lon="-15.697091">
    <time>1971-01-13T13:50:09Z</time>
  <cmt>extensions = 1.14</cmt>
    </trkpt>
    <trkpt lat="28.089242" lon="-15.697114">
    <time>1971-01-13T13:50:20Z</time>
  <cmt>extensions = 1.64</cmt>
    </trkpt>
    <trkpt lat="28.089357" lon="-15.697117">
    <time>1971-01-13T13:50:31Z</time>
  <cmt>extensions = 1.83</cmt>
    </trkpt>
    <trkpt lat="28.089453" lon="-15.697104">
    <time>1971-01-13T13:50:41Z</time>
  <cmt>extensions = 1.35</cmt>
    </trkpt>
    <trkpt lat="28.089504" lon="-15.697107">
    <time>1971-01-13T13:50:46Z</time>
  <cmt>extensions = 0.63</cmt>
    </trkpt>
    <trkpt lat="28.089557" lon="-15.6971">
    <time>1971-01-13T13:50:51Z</time>
  <cmt>extensions = 0.74</cmt>
    </trkpt>
    <trkpt lat="28.089602" lon="-15.69708">
    <time>1971-01-13T13:50:56Z</time>
  <cmt>extensions = 1.34</cmt>
    </trkpt>
    <trkpt lat="28.089683" lon="-15.697082">
    <time>1971-01-13T13:51:04Z</time>
  <cmt>extensions = 1.29</cmt>
    </trkpt>
    <trkpt lat="28.089813" lon="-15.697056">
    <time>1971-01-13T13:51:17Z</time>
  <cmt>extensions = 1.22</cmt>
    </trkpt>
    <trkpt lat="28.089867" lon="-15.697054">
    <time>1971-01-13T13:51:23Z</time>
  <cmt>extensions = 1.20</cmt>
    </trkpt>
    <trkpt lat="28.090029" lon="-15.69698">
    <time>1971-01-13T13:51:40Z</time>
  <cmt>extensions = 1.21</cmt>
    </trkpt>
    <trkpt lat="28.090106" lon="-15.696939">
    <time>1971-01-13T13:51:49Z</time>
  <cmt>extensions = 1.44</cmt>
    </trkpt>
    <trkpt lat="28.090213" lon="-15.696891">
    <time>1971-01-13T13:52:00Z</time>
  <cmt>extensions = 1.42</cmt>
    </trkpt>
    <trkpt lat="28.090258" lon="-15.696946">
    <time>1971-01-13T13:52:07Z</time>
  <cmt>extensions = 1.05</cmt>
    </trkpt>
    <trkpt lat="28.090329" lon="-15.697009">
    <time>1971-01-13T13:52:16Z</time>
  <cmt>extensions = 1.31</cmt>
    </trkpt>
    <trkpt lat="28.090435" lon="-15.696999">
    <time>1971-01-13T13:52:26Z</time>
  <cmt>extensions = 1.65</cmt>
    </trkpt>
    <trkpt lat="28.090555" lon="-15.697067">
    <time>1971-01-13T13:52:40Z</time>
  <cmt>extensions = 1.44</cmt>
    </trkpt>
    <trkpt lat="28.090585" lon="-15.697112">
    <time>1971-01-13T13:52:45Z</time>
  <cmt>extensions = 1.47</cmt>
    </trkpt>
    <trkpt lat="28.090634" lon="-15.697151">
    <time>1971-01-13T13:52:51Z</time>
  <cmt>extensions = 1.67</cmt>
    </trkpt>
    <trkpt lat="28.090684" lon="-15.697179">
    <time>1971-01-13T13:52:56Z</time>
  <cmt>extensions = 1.38</cmt>
    </trkpt>
    <trkpt lat="28.09072" lon="-15.697226">
    <time>1971-01-13T13:53:02Z</time>
  <cmt>extensions = 0.87</cmt>
    </trkpt>
    <trkpt lat="28.090788" lon="-15.697289">
    <time>1971-01-13T13:53:10Z</time>
  <cmt>extensions = 1.40</cmt>
    </trkpt>
    <trkpt lat="28.090856" lon="-15.697293">
    <time>1971-01-13T13:53:17Z</time>
  <cmt>extensions = 1.45</cmt>
    </trkpt>
    <trkpt lat="28.090889" lon="-15.69725">
    <time>1971-01-13T13:53:22Z</time>
  <cmt>extensions = 0.47</cmt>
    </trkpt>
    <trkpt lat="28.090862" lon="-15.697311">
    <time>1971-01-13T13:53:28Z</time>
  <cmt>extensions = 0.96</cmt>
    </trkpt>
    <trkpt lat="28.09091" lon="-15.697317">
    <time>1971-01-13T13:53:33Z</time>
  <cmt>extensions = 1.34</cmt>
    </trkpt>
    <trkpt lat="28.09096" lon="-15.697305">
    <time>1971-01-13T13:53:38Z</time>
  <cmt>extensions = 1.14</cmt>
    </trkpt>
    <trkpt lat="28.09106" lon="-15.697323">
    <time>1971-01-13T13:53:48Z</time>
  <cmt>extensions = 0.85</cmt>
    </trkpt>
    <trkpt lat="28.091092" lon="-15.697363">
    <time>1971-01-13T13:53:53Z</time>
  <cmt>extensions = 1.33</cmt>
    </trkpt>
    <trkpt lat="28.091227" lon="-15.69736">
    <time>1971-01-13T13:54:06Z</time>
  <cmt>extensions = 1.45</cmt>
    </trkpt>
    <trkpt lat="28.091282" lon="-15.697389">
    <time>1971-01-13T13:54:13Z</time>
  <cmt>extensions = 1.69</cmt>
    </trkpt>
    <trkpt lat="28.091387" lon="-15.697505">
    <time>1971-01-13T13:54:27Z</time>
  <cmt>extensions = 1.81</cmt>
    </trkpt>
    <trkpt lat="28.091579" lon="-15.697576">
    <time>1971-01-13T13:54:47Z</time>
  <cmt>extensions = 1.87</cmt>
    </trkpt>
    <trkpt lat="28.091644" lon="-15.697617">
    <time>1971-01-13T13:54:55Z</time>
  <cmt>extensions = 1.96</cmt>
    </trkpt>
    <trkpt lat="28.091872" lon="-15.697634">
    <time>1971-01-13T13:55:18Z</time>
  <cmt>extensions = 1.78</cmt>
    </trkpt>
    <trkpt lat="28.091991" lon="-15.697631">
    <time>1971-01-13T13:55:29Z</time>
  <cmt>extensions = 2.21</cmt>
    </trkpt>
    <trkpt lat="28.092358" lon="-15.69773">
    <time>1971-01-13T13:56:07Z</time>
  <cmt>extensions = 1.68</cmt>
    </trkpt>
    <trkpt lat="28.092578" lon="-15.697656">
    <time>1971-01-13T13:56:30Z</time>
  <cmt>extensions = 1.47</cmt>
    </trkpt>
    <trkpt lat="28.092625" lon="-15.697633">
    <time>1971-01-13T13:56:35Z</time>
  <cmt>extensions = 1.42</cmt>
    </trkpt>
    <trkpt lat="28.092703" lon="-15.697613">
    <time>1971-01-13T13:56:43Z</time>
  <cmt>extensions = 1.39</cmt>
    </trkpt>
    <trkpt lat="28.092943" lon="-15.697637">
    <time>1971-01-13T13:57:07Z</time>
  <cmt>extensions = 1.41</cmt>
    </trkpt>
    <trkpt lat="28.093108" lon="-15.697619">
    <time>1971-01-13T13:57:24Z</time>
  <cmt>extensions = 1.54</cmt>
    </trkpt>
    <trkpt lat="28.093347" lon="-15.69755">
    <time>1971-01-13T13:57:48Z</time>
  <cmt>extensions = 1.83</cmt>
    </trkpt>
    <trkpt lat="28.09359" lon="-15.697555">
    <time>1971-01-13T13:58:12Z</time>
  <cmt>extensions = 1.69</cmt>
    </trkpt>
    <trkpt lat="28.093773" lon="-15.697589">
    <time>1971-01-13T13:58:31Z</time>
  <cmt>extensions = 1.68</cmt>
    </trkpt>
    <trkpt lat="28.093974" lon="-15.697584">
    <time>1971-01-13T13:58:51Z</time>
  <cmt>extensions = 1.72</cmt>
    </trkpt>
    <trkpt lat="28.094099" lon="-15.697563">
    <time>1971-01-13T13:59:04Z</time>
  <cmt>extensions = 1.33</cmt>
    </trkpt>
    <trkpt lat="28.094173" lon="-15.697547">
    <time>1971-01-13T13:59:11Z</time>
  <cmt>extensions = 1.24</cmt>
    </trkpt>
    <trkpt lat="28.094336" lon="-15.697585">
    <time>1971-01-13T13:59:28Z</time>
  <cmt>extensions = 1.41</cmt>
    </trkpt>
    <trkpt lat="28.094387" lon="-15.697595">
    <time>1971-01-13T13:59:33Z</time>
  <cmt>extensions = 1.44</cmt>
    </trkpt>
    <trkpt lat="28.094448" lon="-15.697611">
    <time>1971-01-13T13:59:39Z</time>
  <cmt>extensions = 1.29</cmt>
    </trkpt>
    <trkpt lat="28.094514" lon="-15.69761">
    <time>1971-01-13T13:59:46Z</time>
  <cmt>extensions = 1.34</cmt>
    </trkpt>
    <trkpt lat="28.094592" lon="-15.697611">
    <time>1971-01-13T13:59:53Z</time>
  <cmt>extensions = 1.30</cmt>
    </trkpt>
    <trkpt lat="28.094644" lon="-15.697654">
    <time>1971-01-13T14:00:00Z</time>
  <cmt>extensions = 1.79</cmt>
    </trkpt>
    <trkpt lat="28.094707" lon="-15.697665">
    <time>1971-01-13T14:00:06Z</time>
  <cmt>extensions = 1.77</cmt>
    </trkpt>
    <trkpt lat="28.094801" lon="-15.697653">
    <time>1971-01-13T14:00:16Z</time>
  <cmt>extensions = 1.76</cmt>
    </trkpt>
    <trkpt lat="28.094845" lon="-15.69767">
    <time>1971-01-13T14:00:20Z</time>
  <cmt>extensions = 1.72</cmt>
    </trkpt>
    <trkpt lat="28.094874" lon="-15.697734">
    <time>1971-01-13T14:00:27Z</time>
  <cmt>extensions = 1.76</cmt>
    </trkpt>
    <trkpt lat="28.094921" lon="-15.697776">
    <time>1971-01-13T14:00:33Z</time>
  <cmt>extensions = 1.26</cmt>
    </trkpt>
    <trkpt lat="28.094961" lon="-15.697842">
    <time>1971-01-13T14:00:40Z</time>
  <cmt>extensions = 1.57</cmt>
    </trkpt>
    <trkpt lat="28.09505" lon="-15.697882">
    <time>1971-01-13T14:00:49Z</time>
  <cmt>extensions = 1.78</cmt>
    </trkpt>
    <trkpt lat="28.095185" lon="-15.697917">
    <time>1971-01-13T14:01:03Z</time>
  <cmt>extensions = 2.34</cmt>
    </trkpt>
    <trkpt lat="28.095286" lon="-15.697953">
    <time>1971-01-13T14:01:14Z</time>
  <cmt>extensions = 2.36</cmt>
    </trkpt>
    <trkpt lat="28.09537" lon="-15.697965">
    <time>1971-01-13T14:01:22Z</time>
  <cmt>extensions = 1.89</cmt>
    </trkpt>
    <trkpt lat="28.095418" lon="-15.697922">
    <time>1971-01-13T14:01:28Z</time>
  <cmt>extensions = 1.36</cmt>
    </trkpt>
    <trkpt lat="28.095442" lon="-15.698082">
    <time>1971-01-13T14:01:42Z</time>
  <cmt>extensions = 1.58</cmt>
    </trkpt>
    <trkpt lat="28.095493" lon="-15.698102">
    <time>1971-01-13T14:01:48Z</time>
  <cmt>extensions = 1.10</cmt>
    </trkpt>
    <trkpt lat="28.095571" lon="-15.698138">
    <time>1971-01-13T14:01:56Z</time>
  <cmt>extensions = 1.04</cmt>
    </trkpt>
    <trkpt lat="28.095615" lon="-15.698161">
    <time>1971-01-13T14:02:01Z</time>
  <cmt>extensions = 0.41</cmt>
    </trkpt>
    <trkpt lat="28.095707" lon="-15.698168">
    <time>1971-01-13T14:02:10Z</time>
  <cmt>extensions = 1.14</cmt>
    </trkpt>
    <trkpt lat="28.09585" lon="-15.698213">
    <time>1971-01-13T14:02:25Z</time>
  <cmt>extensions = 0.66</cmt>
    </trkpt>
    <trkpt lat="28.096111" lon="-15.698462">
    <time>1971-01-13T14:02:59Z</time>
  <cmt>extensions = 0.51</cmt>
    </trkpt>
    <trkpt lat="28.096323" lon="-15.698761">
    <time>1971-01-13T14:03:33Z</time>
  <cmt>extensions = 0.68</cmt>
    </trkpt>
    <trkpt lat="28.09637" lon="-15.699328">
    <time>1971-01-13T14:04:23Z</time>
  <cmt>extensions = 18.64</cmt>
    </trkpt>
    <trkpt lat="28.096543" lon="-15.699754">
    <time>1971-01-13T14:05:05Z</time>
  <cmt>extensions = 0.30</cmt>
    </trkpt>
    <trkpt lat="28.096777" lon="-15.700633">
    <time>1971-01-13T14:06:26Z</time>
  <cmt>extensions = 0.63</cmt>
    </trkpt>
    <trkpt lat="28.097113" lon="-15.70106">
    <time>1971-01-13T14:07:17Z</time>
  <cmt>extensions = 1.02</cmt>
    </trkpt>
    <trkpt lat="28.097237" lon="-15.701287">
    <time>1971-01-13T14:07:40Z</time>
  <cmt>extensions = 13.11</cmt>
    </trkpt>
    <trkpt lat="28.09834" lon="-15.703928">
    <time>1971-01-13T14:11:58Z</time>
  <cmt>extensions = 5.99</cmt>
    </trkpt>
    <trkpt lat="28.099179" lon="-15.704232">
    <time>1971-01-13T14:13:26Z</time>
  <cmt>extensions = 8.91</cmt>
    </trkpt>
    <trkpt lat="28.099396" lon="-15.703511">
    <time>1971-01-13T14:14:34Z</time>
  <cmt>extensions = 3.94</cmt>
    </trkpt>
    <trkpt lat="28.0997" lon="-15.703159">
    <time>1971-01-13T14:15:17Z</time>
  <cmt>extensions = 1.93</cmt>
    </trkpt>
    <trkpt lat="28.099726" lon="-15.702919">
    <time>1971-01-13T14:15:38Z</time>
  <cmt>extensions = 0.55</cmt>
    </trkpt>
    <trkpt lat="28.099567" lon="-15.702267">
    <time>1971-01-13T14:16:38Z</time>
  <cmt>extensions = 1.85</cmt>
    </trkpt>
    <trkpt lat="28.099455" lon="-15.701983">
    <time>1971-01-13T14:17:06Z</time>
  <cmt>extensions = 7.64</cmt>
    </trkpt>
    <trkpt lat="28.099497" lon="-15.701219">
    <time>1971-01-13T14:18:13Z</time>
  <cmt>extensions = 4.42</cmt>
    </trkpt>
    <trkpt lat="28.099811" lon="-15.70115">
    <time>1971-01-13T14:18:45Z</time>
  <cmt>extensions = 1.15</cmt>
    </trkpt>
    <trkpt lat="28.099963" lon="-15.700981">
    <time>1971-01-13T14:19:07Z</time>
  <cmt>extensions = 11.85</cmt>
    </trkpt>
    <trkpt lat="28.100127" lon="-15.700883">
    <time>1971-01-13T14:19:25Z</time>
  <cmt>extensions = 2.95</cmt>
    </trkpt>
  </trkseg>
</trk>
</gpx>
